Time;durP1;ratioP1;P1;durP2;ratioP2;P2;SDS_P1;SDS_P2;PMS_P1;PMS_P2;Temp;Humidity;BMP_temperature;BMP_pressure;BME280_temperature;BME280_humidity;BME280_pressure;Samples;Min_cycle;Max_cycle;Signal;HPM_P1;HPM_P2
2022/11/04 00:01:04;;;;;;;;;;;;;;;15.84;100.00;97487.00;5037324;28;19917;-42
2022/11/04 00:03:29;;;;;;;;;;;;;;;15.75;100.00;97483.34;5039674;28;20007;-42
2022/11/04 00:05:54;;;;;;;;;;;;;;;15.63;100.00;97473.88;5039405;28;20019;-42
2022/11/04 00:08:22;;;;;;;;;;;;;;;15.01;100.00;97481.13;5037984;28;20035;-42
2022/11/04 00:13:31;;;;;;;;;;;;;;;15.35;100.00;97488.97;5037907;28;19927;-42
2022/11/04 00:18:43;;;;;;;;;;;;;;;14.97;100.00;97495.25;5038640;28;19951;-42
2022/11/04 00:29:20;;;;;;;;;;;;;;;14.59;100.00;97536.91;5037061;28;19967;-42
2022/11/04 00:34:29;;;;;;;;;;;;;;;14.47;100.00;97568.84;5037714;28;19923;-42
2022/11/04 00:36:54;;;;;;;;;;;;;;;14.17;100.00;97568.31;5039346;28;19916;-42
2022/11/04 00:39:20;;;;;;;;;;;;;;;14.26;100.00;97568.59;5037005;28;19975;-42
2022/11/04 00:41:45;;;;;;;;;;;;;;;13.70;100.00;97566.38;5037874;28;19924;-42
2022/11/04 00:44:10;;;;;;;;;;;;;;;14.31;100.00;97576.88;5037733;28;19928;-42
2022/11/04 00:46:35;;;;;;;;;;;;;;;14.20;100.00;97565.50;5038110;28;19921;-42
2022/11/04 00:49:00;;;;;;;;;;;;;;;14.48;100.00;97568.72;5037419;28;19932;-42
2022/11/04 00:51:26;;;;;;;;;;;;;;;13.81;100.00;97572.47;5038210;28;20373;-42
2022/11/04 00:53:51;;;;;;;;;;;;;;;13.65;100.00;97579.63;5038661;28;20452;-42
2022/11/04 00:56:16;;;;;;;;;;;;;;;13.44;100.00;97588.84;5039860;28;19917;-42
2022/11/04 00:58:42;;;;;;;;;;;;;;;13.59;100.00;97590.38;5036339;28;19925;-42
2022/11/04 01:01:08;;;;;;;;;;;;;;;13.88;100.00;97603.94;5037491;28;19921;-42
2022/11/04 01:03:33;;;;;;;;;;;;;;;13.99;100.00;97605.81;5037965;28;20005;-42
2022/11/04 01:05:58;;;;;;;;;;;;;;;13.73;100.00;97618.75;5035685;28;19998;-42
2022/11/04 01:08:23;;;;;;;;;;;;;;;13.63;100.00;97628.06;5039279;28;20378;-42
2022/11/04 01:10:49;;;;;;;;;;;;;;;13.71;100.00;97620.63;5042828;28;20658;-42
2022/11/04 01:13:14;;;;;;;;;;;;;;;13.50;100.00;97628.06;5040413;28;20377;-42
2022/11/04 01:15:39;;;;;;;;;;;;;;;13.35;100.00;97629.06;5043139;28;19921;-42
2022/11/04 01:18:05;;;;;;;;;;;;;;;13.69;100.00;97624.25;5039445;28;20861;-42
2022/11/04 01:20:30;;;;;;;;;;;;;;;13.28;100.00;97626.03;5039512;28;20098;-42
2022/11/04 01:22:56;;;;;;;;;;;;;;;13.60;100.00;97625.69;5042019;28;19917;-42
2022/11/04 01:25:21;;;;;;;;;;;;;;;14.26;100.00;97630.75;5041397;28;19928;-42
2022/11/04 01:27:46;;;;;;;;;;;;;;;13.67;100.00;97629.50;5040242;28;19956;-42
2022/11/04 01:30:11;;;;;;;;;;;;;;;14.06;100.00;97635.53;5040950;28;19975;-42
2022/11/04 01:32:37;;;;;;;;;;;;;;;14.15;100.00;97634.88;5040196;28;19955;-42
2022/11/04 01:35:02;;;;;;;;;;;;;;;13.62;100.00;97638.53;5056314;28;19917;-42
2022/11/04 01:37:27;;;;;;;;;;;;;;;13.63;100.00;97643.56;5042447;28;19928;-42
2022/11/04 01:39:52;;;;;;;;;;;;;;;13.38;100.00;97649.53;5039547;28;19970;-42
2022/11/04 01:42:19;;;;;;;;;;;;;;;13.77;100.00;97648.66;5041566;28;19925;-42
2022/11/04 01:44:46;;;;;;;;;;;;;;;13.64;100.00;97645.25;5038449;28;19921;-42
2022/11/04 01:47:19;;;;;;;;;;;;;;;13.69;100.00;97644.94;5040412;28;20027;-43
2022/11/04 01:49:45;;;;;;;;;;;;;;;14.12;100.00;97637.69;5039684;28;19976;-42
2022/11/04 01:52:12;;;;;;;;;;;;;;;13.85;100.00;97644.75;5040464;28;20380;-42
2022/11/04 01:54:37;;;;;;;;;;;;;;;13.99;100.00;97644.63;5042085;28;19916;-42
2022/11/04 01:57:03;;;;;;;;;;;;;;;13.63;100.00;97656.50;5041871;28;19927;-42
2022/11/04 01:59:29;;;;;;;;;;;;;;;13.75;100.00;97663.47;5038564;28;19928;-42
2022/11/04 02:01:54;;;;;;;;;;;;;;;13.77;100.00;97660.75;5040186;28;20558;-42
2022/11/04 02:04:25;;;;;;;;;;;;;;;14.05;100.00;97669.25;5041646;28;19917;-42
2022/11/04 02:07:01;;;;;;;;;;;;;;;13.49;100.00;97672.94;5040511;28;19998;-42
2022/11/04 02:09:27;;;;;;;;;;;;;;;14.17;100.00;97658.91;5040493;28;20035;-42
2022/11/04 02:14:36;;;;;;;;;;;;;;;13.76;100.00;97659.13;5041010;28;19924;-42
2022/11/04 02:17:25;;;;;;;;;;;;;;;13.98;100.00;97654.16;5040050;28;19917;-42
2022/11/04 02:19:53;;;;;;;;;;;;;;;13.96;100.00;97656.03;5034934;28;19920;-42
2022/11/04 02:22:21;;;;;;;;;;;;;;;14.10;100.00;97652.50;5041835;28;19920;-42
2022/11/04 02:24:46;;;;;;;;;;;;;;;13.66;100.00;97664.09;5039954;28;19959;-42
2022/11/04 02:27:31;;;;;;;;;;;;;;;14.00;100.00;97654.03;5039588;28;19948;-42
2022/11/04 02:29:59;;;;;;;;;;;;;;;14.07;100.00;97657.03;5027323;28;20286;-42
2022/11/04 02:32:43;;;;;;;;;;;;;;;13.38;100.00;97668.44;5040432;28;19932;-42
2022/11/04 02:35:16;;;;;;;;;;;;;;;13.77;100.00;97677.09;5040972;28;20015;-42
2022/11/04 02:38:00;;;;;;;;;;;;;;;14.03;100.00;97664.22;5039837;28;19917;-42
2022/11/04 02:40:33;;;;;;;;;;;;;;;13.58;100.00;97663.75;5038077;28;19924;-42
2022/11/04 02:43:17;;;;;;;;;;;;;;;13.28;100.00;97672.56;5038378;28;19955;-42
2022/11/04 02:45:49;;;;;;;;;;;;;;;13.47;100.00;97671.38;5039387;28;20288;-42
2022/11/04 02:48:17;;;;;;;;;;;;;;;13.70;100.00;97665.50;5036788;28;20480;-42
2022/11/04 02:50:50;;;;;;;;;;;;;;;13.38;100.00;97659.88;5038293;28;19921;-42
2022/11/04 02:53:28;;;;;;;;;;;;;;;13.56;100.00;97657.84;5038485;28;20567;-42
2022/11/04 02:55:53;;;;;;;;;;;;;;;13.60;100.00;97654.94;5038823;28;19952;-42
2022/11/04 02:58:20;;;;;;;;;;;;;;;12.89;100.00;97663.81;5038483;28;19997;-42
2022/11/04 03:00:46;;;;;;;;;;;;;;;13.05;100.00;97668.03;5038649;28;19968;-42
2022/11/04 03:03:12;;;;;;;;;;;;;;;13.56;100.00;97673.38;5038578;28;19920;-42
2022/11/04 03:05:38;;;;;;;;;;;;;;;13.59;100.00;97658.47;5037179;28;20297;-42
2022/11/04 03:08:05;;;;;;;;;;;;;;;13.14;100.00;97667.44;5040347;28;19917;-42
2022/11/04 03:10:34;;;;;;;;;;;;;;;13.28;100.00;97675.16;5036656;28;19998;-42
2022/11/04 03:13:06;;;;;;;;;;;;;;;13.29;100.00;97669.03;5038670;28;19928;-42
2022/11/04 03:15:32;;;;;;;;;;;;;;;13.35;100.00;97676.41;5040425;28;20579;-42
2022/11/04 03:18:04;;;;;;;;;;;;;;;13.60;100.00;97678.22;5038918;28;19917;-42
2022/11/04 03:20:30;;;;;;;;;;;;;;;13.85;100.00;97668.03;5038338;28;19932;-42
2022/11/04 03:22:58;;;;;;;;;;;;;;;13.12;100.00;97675.28;5039121;28;19925;-42
2022/11/04 03:25:29;;;;;;;;;;;;;;;13.08;100.00;97673.81;5039814;28;20020;-42
2022/11/04 03:28:14;;;;;;;;;;;;;;;13.58;100.00;97674.91;5037474;28;19946;-42
2022/11/04 03:30:42;;;;;;;;;;;;;;;13.32;100.00;97671.44;5038092;28;20522;-42
2022/11/04 03:33:23;;;;;;;;;;;;;;;13.14;100.00;97678.59;5036409;28;19966;-42
2022/11/04 03:35:48;;;;;;;;;;;;;;;13.55;100.00;97676.88;5037676;28;19923;-42
2022/11/04 03:38:13;;;;;;;;;;;;;;;14.01;100.00;97674.66;5035728;28;20378;-42
2022/11/04 03:40:38;;;;;;;;;;;;;;;13.58;100.00;97677.50;5039041;28;20986;-42
2022/11/04 03:43:06;;;;;;;;;;;;;;;13.92;100.00;97666.69;5038043;28;21231;-42
2022/11/04 03:45:31;;;;;;;;;;;;;;;13.81;100.00;97681.16;5038514;28;19919;-42
2022/11/04 03:47:57;;;;;;;;;;;;;;;13.85;100.00;97684.38;5037664;28;20294;-42
2022/11/04 03:50:26;;;;;;;;;;;;;;;13.70;100.00;97691.38;5038427;28;20318;-42
2022/11/04 03:52:51;;;;;;;;;;;;;;;13.31;100.00;97695.63;5052740;28;19920;-42
2022/11/04 03:55:16;;;;;;;;;;;;;;;14.30;100.00;97681.38;5038800;28;20062;-42
2022/11/04 03:57:42;;;;;;;;;;;;;;;14.25;100.00;97691.22;5038708;28;20019;-42
2022/11/04 04:00:11;;;;;;;;;;;;;;;14.12;100.00;97686.88;5036187;28;19917;-42
2022/11/04 04:02:41;;;;;;;;;;;;;;;13.78;100.00;97699.47;5038803;28;20612;-42
2022/11/04 04:05:25;;;;;;;;;;;;;;;13.47;100.00;97712.75;5038345;28;20289;-42
2022/11/04 04:08:11;;;;;;;;;;;;;;;13.99;100.00;97715.34;5038570;28;19959;-42
2022/11/04 04:10:55;;;;;;;;;;;;;;;13.28;100.00;97713.94;5037813;28;19929;-42
2022/11/04 04:13:30;;;;;;;;;;;;;;;13.83;100.00;97711.28;5038181;28;20350;-42
2022/11/04 04:16:22;;;;;;;;;;;;;;;13.24;100.00;97720.19;5037804;28;19916;-42
2022/11/04 04:18:50;;;;;;;;;;;;;;;13.38;100.00;97725.34;5035686;28;19970;-42
2022/11/04 04:21:17;;;;;;;;;;;;;;;13.26;100.00;97727.84;5036280;28;20638;-42
2022/11/04 04:29:10;;;;;;;;;;;;;;;13.69;100.00;97709.63;5037451;28;19979;-42
2022/11/04 04:31:48;;;;;;;;;;;;;;;13.31;100.00;97713.72;5037647;28;19925;-42
2022/11/04 04:34:13;;;;;;;;;;;;;;;13.28;100.00;97716.53;5036810;28;19921;-42
2022/11/04 04:37:05;;;;;;;;;;;;;;;13.27;100.00;97719.16;5039405;28;19940;-42
2022/11/04 04:45:09;;;;;;;;;;;;;;;12.91;100.00;97725.72;5042449;28;19920;-42
2022/11/04 04:47:38;;;;;;;;;;;;;;;12.86;100.00;97740.66;5041802;28;19924;-42
2022/11/04 04:50:04;;;;;;;;;;;;;;;13.23;100.00;97744.41;5040484;28;19928;-42
2022/11/04 04:52:33;;;;;;;;;;;;;;;13.61;100.00;97746.31;5040630;28;20397;-42
2022/11/04 04:54:58;;;;;;;;;;;;;;;13.84;100.00;97746.59;5042572;28;19921;-42
2022/11/04 04:57:23;;;;;;;;;;;;;;;13.65;100.00;97750.38;5041716;28;19982;-42
2022/11/04 04:59:49;;;;;;;;;;;;;;;14.13;100.00;97742.91;5040874;28;20035;-42
2022/11/04 05:02:14;;;;;;;;;;;;;;;13.98;100.00;97751.69;5040712;28;20314;-42
2022/11/04 05:04:39;;;;;;;;;;;;;;;14.19;100.00;97747.69;5043542;28;20547;-42
2022/11/04 05:07:06;;;;;;;;;;;;;;;13.76;100.00;97747.91;5042102;28;20264;-42
2022/11/04 05:09:31;;;;;;;;;;;;;;;13.84;100.00;97760.34;5041844;28;20269;-42
2022/11/04 05:11:57;;;;;;;;;;;;;;;13.67;100.00;97769.22;5040668;28;19921;-42
2022/11/04 05:14:22;;;;;;;;;;;;;;;13.54;100.00;97773.50;5041785;28;19931;-42
2022/11/04 05:16:47;;;;;;;;;;;;;;;13.21;100.00;97772.09;5040440;28;19916;-42
2022/11/04 05:19:12;;;;;;;;;;;;;;;13.09;100.00;97783.19;5042569;28;19923;-42
2022/11/04 05:21:37;;;;;;;;;;;;;;;12.80;100.00;97798.72;5040815;28;19920;-42
2022/11/04 05:24:03;;;;;;;;;;;;;;;13.25;100.00;97790.81;5038060;28;20314;-42
2022/11/04 05:26:28;;;;;;;;;;;;;;;13.41;100.00;97781.22;5039329;28;20298;-42
2022/11/04 05:28:53;;;;;;;;;;;;;;;13.84;100.00;97785.41;5040314;28;20147;-42
2022/11/04 05:31:18;;;;;;;;;;;;;;;13.98;100.00;97773.22;5041591;28;19984;-42
2022/11/04 05:33:44;;;;;;;;;;;;;;;14.33;100.00;97767.47;5041184;28;19982;-42
2022/11/04 05:36:10;;;;;;;;;;;;;;;14.31;100.00;97771.09;5041169;28;19956;-42
2022/11/04 05:38:35;;;;;;;;;;;;;;;14.08;100.00;97757.91;5042116;28;20748;-42
2022/11/04 05:41:00;;;;;;;;;;;;;;;14.20;100.00;97762.28;5038961;28;19966;-42
2022/11/04 05:43:26;;;;;;;;;;;;;;;13.83;100.00;97768.22;5042051;28;19913;-42
2022/11/04 05:45:51;;;;;;;;;;;;;;;13.84;100.00;97780.22;5039147;28;19921;-42
2022/11/04 05:48:16;;;;;;;;;;;;;;;13.95;100.00;97782.94;5040362;28;19921;-42
2022/11/04 05:50:42;;;;;;;;;;;;;;;13.32;100.00;97790.38;5044160;28;19932;-42
2022/11/04 05:53:07;;;;;;;;;;;;;;;13.16;100.00;97790.47;5039950;28;19917;-42
2022/11/04 05:55:32;;;;;;;;;;;;;;;13.28;100.00;97794.09;5039264;28;19935;-42
2022/11/04 05:57:58;;;;;;;;;;;;;;;12.85;100.00;97793.28;5039281;28;20335;-42
2022/11/04 06:00:23;;;;;;;;;;;;;;;13.06;100.00;97798.88;5039275;28;20381;-42
2022/11/04 06:02:48;;;;;;;;;;;;;;;12.93;100.00;97799.66;5040611;28;19925;-42
2022/11/04 06:05:14;;;;;;;;;;;;;;;12.91;100.00;97800.66;5041401;28;19916;-42
2022/11/04 06:07:39;;;;;;;;;;;;;;;13.24;100.00;97808.09;5040701;28;19977;-42
2022/11/04 06:10:05;;;;;;;;;;;;;;;13.46;100.00;97805.03;5039786;28;19920;-42
2022/11/04 06:12:30;;;;;;;;;;;;;;;13.67;100.00;97809.78;5040622;28;20677;-42
2022/11/04 06:14:55;;;;;;;;;;;;;;;13.51;100.00;97817.69;5040758;28;20015;-42
2022/11/04 06:17:21;;;;;;;;;;;;;;;13.67;100.00;97823.53;5041199;28;19928;-42
2022/11/04 06:19:46;;;;;;;;;;;;;;;13.74;100.00;97827.41;5039494;28;19928;-42
2022/11/04 06:22:12;;;;;;;;;;;;;;;13.59;100.00;97828.34;5039981;28;19977;-42
2022/11/04 06:24:37;;;;;;;;;;;;;;;13.50;100.00;97836.69;5039021;28;19921;-42
2022/11/04 06:27:03;;;;;;;;;;;;;;;13.44;100.00;97839.69;5038755;28;20533;-43
2022/11/04 06:29:28;;;;;;;;;;;;;;;13.48;100.00;97843.72;5038479;28;20458;-43
2022/11/04 06:31:53;;;;;;;;;;;;;;;13.49;100.00;97842.81;5039835;28;19920;-43
2022/11/04 06:34:18;;;;;;;;;;;;;;;13.95;100.00;97837.28;5039022;28;19928;-43
2022/11/04 06:36:43;;;;;;;;;;;;;;;14.17;100.00;97845.34;5040228;28;19920;-43
2022/11/04 06:39:09;;;;;;;;;;;;;;;14.35;100.00;97837.31;5038117;28;19951;-43
2022/11/04 06:41:34;;;;;;;;;;;;;;;14.37;100.00;97838.84;5039932;28;19970;-43
2022/11/04 06:43:59;;;;;;;;;;;;;;;13.78;100.00;97835.81;5040278;28;19920;-43
2022/11/04 06:46:33;;;;;;;;;;;;;;;13.95;100.00;97845.88;5038171;28;19928;-43
2022/11/04 06:48:58;;;;;;;;;;;;;;;14.27;100.00;97836.97;5037906;28;19978;-43
2022/11/04 06:51:24;;;;;;;;;;;;;;;14.47;100.00;97848.63;5039889;28;21077;-42
2022/11/04 06:53:49;;;;;;;;;;;;;;;14.40;100.00;97855.94;5040978;28;21342;-43
2022/11/04 06:56:14;;;;;;;;;;;;;;;14.42;100.00;97854.09;5038179;28;19920;-43
2022/11/04 06:58:39;;;;;;;;;;;;;;;14.28;100.00;97867.09;5038201;28;19940;-43
2022/11/04 07:01:05;;;;;;;;;;;;;;;14.16;100.00;97864.41;5037396;28;19939;-43
2022/11/04 07:03:30;;;;;;;;;;;;;;;13.92;100.00;97863.38;5038944;28;19927;-43
2022/11/04 07:05:55;;;;;;;;;;;;;;;14.09;100.00;97868.28;5039952;28;20004;-42
2022/11/04 07:08:20;;;;;;;;;;;;;;;14.17;100.00;97871.22;5038674;28;20007;-43
2022/11/04 07:10:46;;;;;;;;;;;;;;;14.27;100.00;97865.44;5037898;28;19963;-43
2022/11/04 07:13:11;;;;;;;;;;;;;;;14.43;100.00;97866.09;5038207;28;20246;-43
2022/11/04 07:15:37;;;;;;;;;;;;;;;14.41;100.00;97868.81;5040229;28;19947;-43
2022/11/04 07:18:02;;;;;;;;;;;;;;;14.29;100.00;97882.53;5037164;28;19929;-43
2022/11/04 07:20:27;;;;;;;;;;;;;;;14.09;100.00;97898.53;5037445;28;19927;-43
2022/11/04 07:22:53;;;;;;;;;;;;;;;14.32;100.00;97899.66;5038647;28;20385;-45
2022/11/04 07:25:18;;;;;;;;;;;;;;;14.67;100.00;97891.38;5040138;28;19924;-41
2022/11/04 07:27:43;;;;;;;;;;;;;;;14.32;100.00;97899.66;5038792;28;19933;-42
2022/11/04 07:30:09;;;;;;;;;;;;;;;14.46;100.00;97907.38;5038645;28;19925;-42
2022/11/04 07:32:34;;;;;;;;;;;;;;;14.77;100.00;97900.19;5037312;28;19928;-41
2022/11/04 07:34:59;;;;;;;;;;;;;;;14.48;100.00;97896.88;5039948;28;19916;-41
2022/11/04 07:37:24;;;;;;;;;;;;;;;14.34;100.00;97895.19;5039558;28;19917;-42
2022/11/04 07:39:49;;;;;;;;;;;;;;;13.97;100.00;97894.97;5031964;28;20011;-42
2022/11/04 07:42:15;;;;;;;;;;;;;;;14.60;100.00;97893.53;5032077;28;20032;-42
2022/11/04 07:44:40;;;;;;;;;;;;;;;14.76;100.00;97882.97;5033536;28;20429;-42
2022/11/04 07:47:05;;;;;;;;;;;;;;;14.86;100.00;97878.81;5033512;28;20294;-42
2022/11/04 07:49:30;;;;;;;;;;;;;;;14.82;100.00;97882.56;5038056;28;19917;-42
2022/11/04 07:51:56;;;;;;;;;;;;;;;14.11;100.00;97884.56;5038781;28;19916;-42
2022/11/04 07:54:21;;;;;;;;;;;;;;;14.44;100.00;97894.50;5039990;28;19916;-42
2022/11/04 07:56:46;;;;;;;;;;;;;;;15.03;100.00;97890.66;5036918;28;19921;-42
2022/11/04 07:59:11;;;;;;;;;;;;;;;15.20;100.00;97897.28;5037037;28;19920;-42
2022/11/04 08:01:36;;;;;;;;;;;;;;;14.76;100.00;97899.34;5036837;28;20702;-42
2022/11/04 08:04:03;;;;;;;;;;;;;;;15.12;100.00;97894.38;5037990;28;20377;-42
2022/11/04 08:06:29;;;;;;;;;;;;;;;15.13;100.00;97896.03;5038802;28;19921;-42
2022/11/04 08:08:54;;;;;;;;;;;;;;;15.04;100.00;97898.31;5036408;28;19936;-42
2022/11/04 08:11:22;;;;;;;;;;;;;;;15.12;100.00;97905.59;5037869;28;19925;-42
2022/11/04 08:13:47;;;;;;;;;;;;;;;15.09;100.00;97915.34;5038094;28;19932;-42
2022/11/04 08:16:13;;;;;;;;;;;;;;;14.94;100.00;97919.78;5037939;28;19921;-42
2022/11/04 08:18:39;;;;;;;;;;;;;;;15.00;100.00;97933.16;5041359;28;20017;-42
2022/11/04 08:21:04;;;;;;;;;;;;;;;15.02;100.00;97927.88;5056263;28;19979;-42
2022/11/04 08:23:30;;;;;;;;;;;;;;;15.44;100.00;97931.06;5042407;28;19948;-42
2022/11/04 08:25:55;;;;;;;;;;;;;;;14.92;100.00;97943.22;5042926;28;20683;-42
2022/11/04 08:28:20;;;;;;;;;;;;;;;14.75;100.00;97951.28;5040968;28;19963;-42
2022/11/04 08:30:51;;;;;;;;;;;;;;;14.89;100.00;97956.38;5042365;28;19925;-42
2022/11/04 08:33:17;;;;;;;;;;;;;;;15.46;100.00;97950.81;5040145;28;19925;-42
2022/11/04 08:35:42;;;;;;;;;;;;;;;15.64;100.00;97943.47;5042440;28;20458;-42
2022/11/04 08:38:07;;;;;;;;;;;;;;;15.86;100.00;97939.44;5041207;28;20401;-42
2022/11/04 08:40:32;;;;;;;;;;;;;;;15.62;100.00;97936.75;5041984;28;21500;-42
2022/11/04 08:42:58;;;;;;;;;;;;;;;15.38;100.00;97931.50;5040946;28;19920;-42
2022/11/04 08:45:23;;;;;;;;;;;;;;;14.88;100.00;97938.34;5042418;28;19959;-42
2022/11/04 08:47:49;;;;;;;;;;;;;;;15.23;100.00;97938.56;5042520;28;20040;-42
2022/11/04 08:50:14;;;;;;;;;;;;;;;15.71;100.00;97923.16;5043052;28;20650;-42
2022/11/04 08:52:39;;;;;;;;;;;;;;;15.74;100.00;97928.16;5043065;28;20004;-42
2022/11/04 08:55:04;;;;;;;;;;;;;;;15.85;100.00;97922.19;5043476;28;20011;-42
2022/11/04 08:57:30;;;;;;;;;;;;;;;16.51;100.00;97912.22;5039373;28;20059;-42
2022/11/04 08:59:55;;;;;;;;;;;;;;;15.83;100.00;97911.94;5037704;28;19927;-41
2022/11/04 09:02:21;;;;;;;;;;;;;;;15.69;100.00;97928.44;5040752;28;20043;-42
2022/11/04 09:04:46;;;;;;;;;;;;;;;16.16;100.00;97913.03;5040995;28;19938;-42
2022/11/04 09:07:11;;;;;;;;;;;;;;;15.25;100.00;97911.56;5042317;28;20004;-41
2022/11/04 09:09:38;;;;;;;;;;;;;;;16.13;100.00;97897.69;5039980;28;20020;-42
2022/11/04 09:12:03;;;;;;;;;;;;;;;16.70;100.00;97896.94;5041883;28;19928;-42
2022/11/04 09:14:28;;;;;;;;;;;;;;;17.30;100.00;97873.38;5041988;28;19939;-42
2022/11/04 09:16:54;;;;;;;;;;;;;;;16.54;100.00;97891.22;5041213;28;20768;-42
2022/11/04 09:19:19;;;;;;;;;;;;;;;17.13;100.00;97888.53;5042067;28;20285;-42
2022/11/04 09:21:44;;;;;;;;;;;;;;;17.14;100.00;97878.94;5039617;28;20285;-42
2022/11/04 09:24:10;;;;;;;;;;;;;;;17.36;100.00;97878.13;5042177;28;19921;-42
2022/11/04 09:26:36;;;;;;;;;;;;;;;17.24;100.00;97873.84;5041089;28;19917;-42
2022/11/04 09:29:01;;;;;;;;;;;;;;;17.65;100.00;97877.59;5038909;28;20031;-42
2022/11/04 09:31:27;;;;;;;;;;;;;;;17.18;100.00;97884.75;5038786;28;19975;-42
2022/11/04 09:33:53;;;;;;;;;;;;;;;17.02;100.00;97900.69;5039077;28;19991;-42
2022/11/04 09:36:18;;;;;;;;;;;;;;;17.22;100.00;97892.19;5041769;28;19917;-42
2022/11/04 09:38:43;;;;;;;;;;;;;;;16.46;100.00;97894.38;5039763;28;19921;-42
2022/11/04 09:41:28;;;;;;;;;;;;;;;16.43;100.00;97894.59;5041288;28;19921;-42
2022/11/04 09:43:59;;;;;;;;;;;;;;;16.93;100.00;97897.00;5041711;28;19916;-41
2022/11/04 09:46:24;;;;;;;;;;;;;;;17.34;100.00;97893.00;5041486;28;21004;-42
2022/11/04 09:48:50;;;;;;;;;;;;;;;15.80;100.00;97912.13;5040862;28;19920;-42
2022/11/04 09:51:16;;;;;;;;;;;;;;;16.56;100.00;97912.75;5045478;28;19925;-41
2022/11/04 09:53:55;;;;;;;;;;;;;;;16.98;100.00;97910.50;5040338;28;19916;-42
2022/11/04 09:56:21;;;;;;;;;;;;;;;16.81;100.00;97903.13;5039491;28;19917;-42
2022/11/04 09:58:47;;;;;;;;;;;;;;;16.93;100.00;97913.44;5039235;28;19929;-42
2022/11/04 10:01:15;;;;;;;;;;;;;;;16.25;100.00;97938.34;5035993;28;20026;-42
2022/11/04 10:03:59;;;;;;;;;;;;;;;16.33;100.00;97934.34;5038694;28;20373;-42
2022/11/04 10:06:44;;;;;;;;;;;;;;;15.15;100.00;97961.59;5040055;28;19921;-41
2022/11/04 10:09:09;;;;;;;;;;;;;;;15.14;100.00;97971.13;5038801;28;19924;-41
2022/11/04 10:11:44;;;;;;;;;;;;;;;15.00;100.00;97974.63;5040262;28;19924;-41
2022/11/04 10:14:14;;;;;;;;;;;;;;;15.71;100.00;97969.06;5040718;28;19924;-41
2022/11/04 10:16:39;;;;;;;;;;;;;;;15.28;100.00;97972.81;5040031;28;20499;-41
2022/11/04 10:19:13;;;;;;;;;;;;;;;15.51;100.00;97976.44;5040332;28;19932;-42
2022/11/04 10:21:58;;;;;;;;;;;;;;;15.43;100.00;97992.50;5041093;28;19921;-42
2022/11/04 10:24:29;;;;;;;;;;;;;;;14.92;100.00;97984.72;5038009;28;19921;-42
2022/11/04 10:26:59;;;;;;;;;;;;;;;14.83;100.00;97983.53;5038830;28;19916;-42
2022/11/04 10:29:29;;;;;;;;;;;;;;;15.16;100.00;97978.81;5035574;28;19917;-41
2022/11/04 10:31:55;;;;;;;;;;;;;;;15.00;100.00;97979.81;5039197;28;19968;-41
2022/11/04 10:34:27;;;;;;;;;;;;;;;15.56;100.00;97970.94;5034451;28;20364;-41
2022/11/04 10:36:52;;;;;;;;;;;;;;;15.81;100.00;97960.53;5031560;28;19917;-42
2022/11/04 10:39:22;;;;;;;;;;;;;;;15.92;100.00;97964.13;5032758;28;19960;-42
2022/11/04 10:41:47;;;;;;;;;;;;;;;16.33;100.00;97961.19;5038269;28;19916;-42
2022/11/04 10:44:20;;;;;;;;;;;;;;;15.55;100.00;97975.25;5040162;28;20604;-42
2022/11/04 10:46:51;;;;;;;;;;;;;;;15.50;100.00;97982.53;5037605;28;19938;-42
2022/11/04 10:49:16;;;;;;;;;;;;;;;15.41;100.00;97977.97;5040038;28;20278;-42
2022/11/04 10:51:41;;;;;;;;;;;;;;;16.60;100.00;97971.31;5038608;28;19931;-42
2022/11/04 10:54:07;;;;;;;;;;;;;;;16.00;100.00;97987.78;5039117;28;19921;-42
2022/11/04 10:56:32;;;;;;;;;;;;;;;16.60;100.00;97973.09;5039840;28;19923;-42
2022/11/04 10:58:59;;;;;;;;;;;;;;;16.09;100.00;97994.94;5037104;28;19979;-42
2022/11/04 11:01:26;;;;;;;;;;;;;;;15.76;100.00;97988.59;5037691;28;19920;-41
2022/11/04 11:03:52;;;;;;;;;;;;;;;15.25;100.00;97998.94;5039087;28;19917;-42
2022/11/04 11:06:20;;;;;;;;;;;;;;;16.06;100.00;97995.16;5037055;28;19963;-42
2022/11/04 11:08:46;;;;;;;;;;;;;;;16.01;100.00;97997.22;5038774;28;20004;-42
2022/11/04 11:11:12;;;;;;;;;;;;;;;15.61;100.00;98006.00;5037622;28;20382;-42
2022/11/04 11:13:39;;;;;;;;;;;;;;;16.28;100.00;98003.09;5038490;28;19929;-42
2022/11/04 11:16:06;;;;;;;;;;;;;;;16.23;100.00;97997.38;5038071;28;19920;-42
2022/11/04 11:18:31;;;;;;;;;;;;;;;16.27;100.00;97993.63;5039343;28;19916;-42
2022/11/04 11:21:06;;;;;;;;;;;;;;;16.35;100.00;97989.66;5036911;28;19974;-42
2022/11/04 11:23:31;;;;;;;;;;;;;;;16.73;100.00;97979.88;5040614;28;19942;-42
2022/11/04 11:25:57;;;;;;;;;;;;;;;16.54;100.00;97992.59;5040499;28;20409;-42
2022/11/04 11:28:22;;;;;;;;;;;;;;;17.02;100.00;97984.75;5037666;28;19928;-42
2022/11/04 11:30:48;;;;;;;;;;;;;;;16.46;100.00;97982.72;5037612;28;19975;-42
2022/11/04 11:33:17;;;;;;;;;;;;;;;16.20;100.00;97987.22;5038789;28;20321;-42
2022/11/04 11:35:52;;;;;;;;;;;;;;;16.13;100.00;97988.59;5038154;28;19920;-42
2022/11/04 11:38:18;;;;;;;;;;;;;;;15.50;100.00;98007.66;5038426;28;19967;-42
2022/11/04 11:40:44;;;;;;;;;;;;;;;15.33;100.00;98001.88;5037745;28;19943;-42
2022/11/04 11:43:15;;;;;;;;;;;;;;;15.98;100.00;97989.66;5039922;28;19920;-42
2022/11/04 11:45:41;;;;;;;;;;;;;;;16.29;100.00;97991.75;5037891;28;19995;-42
2022/11/04 11:48:26;;;;;;;;;;;;;;;16.03;100.00;97993.63;5037516;28;20618;-42
2022/11/04 11:50:58;;;;;;;;;;;;;;;15.94;100.00;98001.19;5036132;28;20370;-42
2022/11/04 11:53:25;;;;;;;;;;;;;;;15.63;100.00;98000.72;5039839;28;19916;-42
2022/11/04 11:55:53;;;;;;;;;;;;;;;15.63;100.00;98006.72;5039417;28;19913;-42
2022/11/04 11:58:30;;;;;;;;;;;;;;;15.76;100.00;98011.09;5038898;28;20157;-42
2022/11/04 12:00:55;;;;;;;;;;;;;;;15.83;100.00;98013.19;5036861;28;20135;-42
2022/11/04 12:03:29;;;;;;;;;;;;;;;16.10;100.00;98004.38;5040078;28;19943;-42
2022/11/04 12:06:00;;;;;;;;;;;;;;;15.82;100.00;98018.47;5039227;28;20622;-42
2022/11/04 12:08:34;;;;;;;;;;;;;;;15.91;100.00;98022.19;5036909;28;19952;-42
2022/11/04 12:11:11;;;;;;;;;;;;;;;15.72;100.00;98020.88;5038032;28;19925;-42
2022/11/04 12:13:45;;;;;;;;;;;;;;;15.78;100.00;98015.28;5036337;28;19928;-42
2022/11/04 12:16:28;;;;;;;;;;;;;;;16.55;100.00;98004.63;5034614;28;19999;-42
2022/11/04 12:19:03;;;;;;;;;;;;;;;16.76;100.00;97988.41;5037735;28;19913;-42
2022/11/04 12:21:35;;;;;;;;;;;;;;;16.47;100.00;98004.38;5036646;28;19921;-42
2022/11/04 12:24:05;;;;;;;;;;;;;;;16.22;100.00;98005.31;5037654;28;19921;-42
2022/11/04 12:26:33;;;;;;;;;;;;;;;15.95;100.00;98002.88;5034142;28;20786;-42
2022/11/04 12:28:59;;;;;;;;;;;;;;;16.44;100.00;98009.78;5037234;28;20899;-42
2022/11/04 12:31:34;;;;;;;;;;;;;;;16.48;100.00;98009.44;5035670;28;20015;-41
2022/11/04 12:34:08;;;;;;;;;;;;;;;16.43;100.00;98005.53;5036363;28;19924;-42
2022/11/04 12:36:33;;;;;;;;;;;;;;;15.97;100.00;98011.38;5036116;28;20374;-42
2022/11/04 12:38:58;;;;;;;;;;;;;;;16.25;100.00;98012.88;5038064;28;19971;-42
2022/11/04 12:41:43;;;;;;;;;;;;;;;16.19;100.00;98014.09;5037026;28;19927;-42
2022/11/04 12:44:27;;;;;;;;;;;;;;;16.36;100.00;98017.31;5024469;28;19940;-42
2022/11/04 12:47:04;;;;;;;;;;;;;;;17.30;100.00;98008.69;5036791;28;19969;-42
2022/11/04 12:49:48;;;;;;;;;;;;;;;17.68;100.00;97997.13;5036239;28;19950;-42
2022/11/04 12:52:14;;;;;;;;;;;;;;;16.77;100.00;98013.47;5049840;28;20010;-42
2022/11/04 12:54:57;;;;;;;;;;;;;;;16.46;100.00;98023.50;5038459;28;19925;-42
2022/11/04 12:57:41;;;;;;;;;;;;;;;16.79;100.00;98014.22;5037370;28;19924;-42
2022/11/04 13:00:10;;;;;;;;;;;;;;;16.65;100.00;98021.22;5036588;28;20008;-42
2022/11/04 13:02:38;;;;;;;;;;;;;;;16.42;100.00;98027.25;5036367;28;19970;-42
2022/11/04 13:05:06;;;;;;;;;;;;;;;16.99;100.00;98016.19;5041431;28;19960;-42
2022/11/04 13:07:37;;;;;;;;;;;;;;;17.29;100.00;98007.03;5040535;28;19917;-42
2022/11/04 13:10:06;;;;;;;;;;;;;;;17.27;100.00;98009.75;5040493;28;20405;-42